Dyce, United Kingdom
Current Conditions -  °F | °C
As of 3:20 AM on Tuesday 21 Oct 2014 (Local Time) from EGPD Reporting Station
Drizzle Drizzle  
Wind Chill: 54°   Ceiling: 1400
Heat Index: 54°   Visibility: 6mi
Dew Point: 52°   Wind: 22mph
Humidity: 94%   Direction: 180°S
Pressure: 29.12"   Gusts: NA
Location:  57.25°N, 2.23°W
Report Text: EGPD 210220Z AUTO 18019KT 9999 -DZ FEW012/// BKN014/// 12/11 Q0986
Loading
Personal Weather Stations






























Interactive Weather Map New forecast layout! Learn more

10-Day Weather Forecast

Advertisements
Track Severe Weather on mobile